Time;durP1;ratioP1;P1;durP2;ratioP2;P2;SDS_P1;SDS_P2;PMS_P1;PMS_P2;Temp;Humidity;BMP_temperature;BMP_pressure;BME280_temperature;BME280_humidity;BME280_pressure;Samples;Min_cycle;Max_cycle;Signal;HPM_P1;HPM_P2
2021/12/14 00:01:04;;;;;;;104.50;65.95;;;76.80;2227.20;;;;;;5066950;28;20075;-75
2021/12/14 00:03:32;;;;;;;110.78;64.97;;;76.90;2227.20;;;;;;5047568;28;20032;-74
2021/12/14 00:05:58;;;;;;;101.45;63.65;;;76.80;2227.20;;;;;;5065470;28;20036;-73
2021/12/14 00:08:26;;;;;;;101.97;62.42;;;76.80;2227.20;;;;;;5061925;28;20044;-73
2021/12/14 00:16:07;;;;;;;110.90;61.60;;;52.00;2227.20;;;;;;5062460;28;20480;-74
2021/12/14 00:18:36;;;;;;;97.38;60.25;;;52.00;2227.20;;;;;;5053749;28;20457;-74
2021/12/14 00:21:18;;;;;;;104.80;61.67;;;52.00;2227.20;;;;;;5063238;28;20388;-75
2021/12/14 00:26:29;;;;;;;108.28;62.58;;;52.00;2227.20;;;;;;5063528;28;20028;-74
2021/12/14 00:28:54;;;;;;;105.95;63.08;;;52.00;2227.20;;;;;;5045350;28;20020;-73
2021/12/14 00:31:21;;;;;;;104.80;62.70;;;51.90;2227.20;;;;;;5056993;28;20471;-73
2021/12/14 00:33:51;;;;;;;102.40;61.38;;;51.90;2227.20;;;;;;5062339;28;20077;-74
2021/12/14 00:36:17;;;;;;;103.38;61.13;;;51.90;2227.20;;;;;;5061556;28;20427;-74
2021/12/14 00:38:45;;;;;;;102.82;59.47;;;52.00;2227.20;;;;;;5059125;28;20056;-74
2021/12/14 00:41:18;;;;;;;102.40;63.05;;;51.90;2227.20;;;;;;5036960;28;20024;-74
2021/12/14 00:43:45;;;;;;;103.43;61.70;;;52.00;2227.20;;;;;;5060083;28;20471;-73
2021/12/14 00:46:13;;;;;;;98.25;61.75;;;51.90;2227.20;;;;;;5053259;28;20115;-73
2021/12/14 00:48:41;;;;;;;102.65;59.53;;;51.80;2227.20;;;;;;5057895;28;20024;-73
2021/12/14 00:51:08;;;;;;;105.35;63.65;;;51.70;2227.20;;;;;;5049218;28;20175;-73
2021/12/14 00:53:35;;;;;;;98.45;59.22;;;51.70;2227.20;;;;;;5054900;28;20032;-74
2021/12/14 00:56:04;;;;;;;104.35;60.40;;;51.60;2227.20;;;;;;5051689;28;20021;-73
2021/12/14 00:58:30;;;;;;;100.30;57.60;;;51.70;2227.20;;;;;;5047840;28;20032;-73
2021/12/14 01:01:12;;;;;;;99.40;59.03;;;51.70;2227.20;;;;;;5060563;28;20017;-74
2021/12/14 01:03:41;;;;;;;88.93;53.70;;;51.60;2227.20;;;;;;5056834;28;20028;-74
2021/12/14 01:06:10;;;;;;;98.82;55.25;;;51.60;2227.20;;;;;;5067694;28;20052;-73
2021/12/14 01:08:40;;;;;;;92.97;52.58;;;51.60;2227.20;;;;;;5042091;28;20124;-74
2021/12/14 01:11:17;;;;;;;90.38;54.70;;;51.70;2227.20;;;;;;5051219;28;20041;-74
2021/12/14 01:13:55;;;;;;;93.50;54.97;;;51.60;2227.20;;;;;;5060079;28;20360;-74
2021/12/14 01:16:34;;;;;;;94.63;55.22;;;51.60;2227.20;;;;;;5045729;28;20074;-74
2021/12/14 01:19:16;;;;;;;85.82;51.92;;;51.50;2227.20;;;;;;5053875;28;20027;-74
2021/12/14 01:22:38;;;;;;;102.90;58.50;;;51.50;2227.20;;;;;;5034650;28;20025;-73
2021/12/14 01:27:25;;;;;;;93.45;56.22;;;51.40;2227.20;;;;;;5055666;28;20028;-73
2021/12/14 01:29:53;;;;;;;86.63;53.85;;;51.40;2227.20;;;;;;5055701;28;20387;-73
2021/12/14 01:32:22;;;;;;;83.60;52.17;;;51.30;2227.20;;;;;;5037654;28;20021;-73
2021/12/14 01:34:48;;;;;;;94.80;53.50;;;51.30;2227.20;;;;;;5037457;28;20029;-73
2021/12/14 01:37:19;;;;;;;91.28;55.25;;;51.30;2227.20;;;;;;5055795;28;20044;-73
2021/12/14 01:40:02;;;;;;;87.30;54.63;;;51.30;2227.20;;;;;;5030373;28;20042;-74
2021/12/14 01:42:33;;;;;;;85.20;51.20;;;51.40;2227.20;;;;;;5014706;28;20049;-73
2021/12/14 01:45:16;;;;;;;85.15;50.55;;;51.40;2227.20;;;;;;5017554;28;20564;-74
2021/12/14 01:47:56;;;;;;;89.68;57.03;;;51.40;2227.20;;;;;;5035154;28;20546;-74
2021/12/14 01:50:37;;;;;;;94.00;53.22;;;51.30;2227.20;;;;;;5035460;28;20112;-74
2021/12/14 01:53:04;;;;;;;83.88;50.55;;;51.20;2227.20;;;;;;5035433;28;20481;-74
2021/12/14 01:55:33;;;;;;;92.57;55.50;;;51.20;2227.20;;;;;;5050474;28;20441;-74
2021/12/14 01:58:03;;;;;;;88.78;52.63;;;26.50;2201.60;;;;;;5035551;28;20021;-74
2021/12/14 02:00:40;;;;;;;79.13;47.70;;;26.50;2201.60;;;;;;5035158;28;20392;-74
2021/12/14 02:03:07;;;;;;;86.07;49.33;;;26.50;2201.60;;;;;;5034800;28;20021;-74
2021/12/14 02:05:55;;;;;;;86.55;49.45;;;26.40;2201.60;;;;;;5035154;28;20353;-74
2021/12/14 02:08:32;;;;;;;82.93;49.38;;;26.50;2201.60;;;;;;5034215;28;20044;-74
2021/12/14 02:11:00;;;;;;;88.53;50.50;;;51.20;2227.20;;;;;;5033563;28;20128;-74
2021/12/14 02:13:30;;;;;;;85.00;49.22;;;51.20;2227.20;;;;;;5050511;28;20040;-74
2021/12/14 02:15:57;;;;;;;81.47;50.42;;;51.30;2227.20;;;;;;5050066;28;20042;-74
2021/12/14 02:18:25;;;;;;;90.90;52.60;;;51.40;2227.20;;;;;;5050457;28;20124;-74
2021/12/14 02:21:08;;;;;;;84.15;49.70;;;51.40;2227.20;;;;;;5034741;28;20025;-74
2021/12/14 02:23:41;;;;;;;81.93;49.05;;;51.40;2227.20;;;;;;5034593;28;20419;-75
2021/12/14 02:26:17;;;;;;;84.00;49.50;;;51.40;2227.20;;;;;;5050375;28;20025;-74
2021/12/14 02:28:44;;;;;;;82.40;49.22;;;51.40;2227.20;;;;;;5034490;28;20500;-74
2021/12/14 02:31:13;;;;;;;83.13;49.22;;;51.30;2227.20;;;;;;5050386;28;20041;-74
2021/12/14 02:33:42;;;;;;;79.47;48.17;;;51.20;2227.20;;;;;;5033970;28;20053;-74
2021/12/14 02:36:18;;;;;;;85.53;48.85;;;51.20;2227.20;;;;;;5034407;28;20106;-74
2021/12/14 02:38:48;;;;;;;76.55;44.10;;;51.20;2227.20;;;;;;5056850;28;20044;-74
2021/12/14 02:41:14;;;;;;;77.95;46.10;;;51.20;2227.20;;;;;;5056087;28;20506;-74
2021/12/14 02:43:53;;;;;;;79.07;48.95;;;51.20;2227.20;;;;;;5074612;28;20042;-74
2021/12/14 02:46:28;;;;;;;74.80;44.45;;;26.50;2201.60;;;;;;5074095;28;20029;-74
2021/12/14 02:49:02;;;;;;;81.18;47.65;;;51.20;2227.20;;;;;;5074133;28;20025;-74
2021/12/14 02:51:40;;;;;;;82.28;49.63;;;51.20;2227.20;;;;;;5074508;28;20107;-74
2021/12/14 02:54:12;;;;;;;69.20;44.92;;;51.20;2227.20;;;;;;5073903;28;20035;-74
2021/12/14 02:56:40;;;;;;;83.25;46.20;;;51.20;2227.20;;;;;;5055898;28;20021;-74
2021/12/14 02:59:27;;;;;;;78.43;46.03;;;26.50;2201.60;;;;;;5074358;28;20024;-74
2021/12/14 03:01:56;;;;;;;71.78;45.70;;;51.20;2227.20;;;;;;5056040;28;20024;-74
2021/12/14 03:04:22;;;;;;;70.93;44.65;;;51.20;2227.20;;;;;;5056168;28;20111;-75
2021/12/14 03:06:53;;;;;;;84.07;46.85;;;51.20;2227.20;;;;;;5073760;28;20539;-74
2021/12/14 03:12:20;;;;;;;83.20;49.00;;;51.20;2227.20;;;;;;5031927;28;20076;-74
2021/12/14 03:14:52;;;;;;;81.30;47.17;;;26.50;2201.60;;;;;;5031927;28;20044;-74
2021/12/14 03:17:19;;;;;;;81.00;45.92;;;26.30;2201.60;;;;;;5031649;28;20029;-74
2021/12/14 03:19:56;;;;;;;83.00;48.40;;;26.30;2201.60;;;;;;5031845;28;20082;-75
2021/12/14 03:22:35;;;;;;;83.80;49.72;;;26.20;2201.60;;;;;;5036811;28;20555;-75
2021/12/14 03:25:02;;;;;;;83.32;45.65;;;26.20;2201.60;;;;;;5042694;28;20064;-74
2021/12/14 03:27:28;;;;;;;90.75;49.90;;;26.10;2201.60;;;;;;5031837;28;20401;-75
2021/12/14 03:29:54;;;;;;;89.90;50.45;;;26.10;2201.60;;;;;;5030820;28;20038;-74
2021/12/14 03:32:20;;;;;;;96.20;51.20;;;26.10;2201.60;;;;;;5039255;28;20399;-75
2021/12/14 03:34:46;;;;;;;90.22;50.22;;;26.00;2201.60;;;;;;5039056;28;20021;-75
2021/12/14 03:37:19;;;;;;;91.05;50.60;;;26.00;2201.60;;;;;;5049983;28;20178;-75
2021/12/14 03:39:52;;;;;;;90.82;48.42;;;26.00;2201.60;;;;;;5033761;28;20111;-75
2021/12/14 03:42:27;;;;;;;84.55;51.28;;;26.20;2201.60;;;;;;5039142;28;20496;-74
2021/12/14 03:44:56;;;;;;;77.57;45.70;;;26.20;2201.60;;;;;;5019260;28;20096;-74
2021/12/14 03:47:32;;;;;;;84.85;45.50;;;26.30;2201.60;;;;;;5038994;28;20030;-75
2021/12/14 03:50:07;;;;;;;77.90;45.97;;;26.20;2201.60;;;;;;5044534;28;20033;-75
2021/12/14 03:52:36;;;;;;;76.22;45.53;;;26.30;2201.60;;;;;;5064473;28;20032;-75
2021/12/14 03:55:12;;;;;;;79.88;44.10;;;26.40;2201.60;;;;;;5061991;28;20075;-75
2021/12/14 03:57:38;;;;;;;83.65;46.22;;;26.20;2201.60;;;;;;5050846;28;20484;-75
2021/12/14 04:00:07;;;;;;;80.47;47.97;;;26.10;2201.60;;;;;;5066919;28;20502;-75
2021/12/14 04:02:34;;;;;;;79.00;48.03;;;26.00;2201.60;;;;;;5061701;28;20113;-75
2021/12/14 04:05:06;;;;;;;82.18;46.83;;;25.90;2201.60;;;;;;5041993;28;20035;-75
2021/12/14 04:07:35;;;;;;;86.22;47.97;;;25.90;2201.60;;;;;;5053479;28;20052;-74
2021/12/14 04:10:03;;;;;;;97.22;52.78;;;25.90;2201.60;;;;;;5060982;28;20020;-74
2021/12/14 04:12:29;;;;;;;83.72;49.72;;;25.80;2201.60;;;;;;5066033;28;20040;-74
2021/12/14 04:14:56;;;;;;;92.32;50.90;;;25.80;2201.60;;;;;;5049582;28;20820;-74
2021/12/14 04:17:26;;;;;;;90.15;48.03;;;25.80;2201.60;;;;;;5052389;28;20016;-75
2021/12/14 04:19:52;;;;;;;86.07;50.92;;;25.70;2201.60;;;;;;5061266;28;20126;-74
2021/12/14 04:22:24;;;;;;;92.35;50.83;;;25.60;2201.60;;;;;;5044447;28;20097;-75
2021/12/14 04:24:56;;;;;;;97.85;53.40;;;0.90;2201.60;;;;;;5063060;28;20016;-75
2021/12/14 04:27:26;;;;;;;101.05;52.55;;;0.90;2201.60;;;;;;5051230;28;20545;-75
2021/12/14 04:29:53;;;;;;;102.90;52.95;;;25.60;2201.60;;;;;;5065923;28;20025;-74
2021/12/14 04:32:20;;;;;;;102.70;54.15;;;25.60;2201.60;;;;;;5049293;28;20028;-75
2021/12/14 04:34:49;;;;;;;96.05;52.70;;;25.60;2201.60;;;;;;5040114;28;20025;-75
2021/12/14 04:37:16;;;;;;;97.82;51.20;;;0.90;2201.60;;;;;;5053492;28;20020;-75
2021/12/14 04:39:47;;;;;;;102.10;50.30;;;0.90;2201.60;;;;;;5059783;28;20049;-74
2021/12/14 04:53:43;;;;;;;99.35;52.97;;;25.60;2201.60;;;;;;5072100;28;20032;-75
2021/12/14 04:56:14;;;;;;;100.35;51.92;;;25.60;2201.60;;;;;;5070603;28;20061;-75
2021/12/14 04:58:45;;;;;;;112.07;56.20;;;0.90;2201.60;;;;;;5072084;28;20047;-74
2021/12/14 05:01:14;;;;;;;122.85;53.95;;;0.90;2201.60;;;;;;5071716;28;20017;-75
2021/12/14 05:03:59;;;;;;;88.47;50.15;;;0.90;2201.60;;;;;;5063255;28;20020;-75
2021/12/14 05:06:33;;;;;;;101.82;52.70;;;0.90;2201.60;;;;;;5062952;28;20017;-76
2021/12/14 05:09:21;;;;;;;94.40;50.83;;;0.70;2201.60;;;;;;5070330;28;20021;-75
2021/12/14 05:11:53;;;;;;;109.82;54.00;;;0.70;2201.60;;;;;;5072120;28;20038;-76
2021/12/14 05:14:20;;;;;;;168.45;63.25;;;0.70;2201.60;;;;;;5071504;28;20025;-75
2021/12/14 05:16:46;;;;;;;130.63;59.38;;;0.60;2201.60;;;;;;5053661;28;20115;-75
2021/12/14 05:19:13;;;;;;;130.10;60.58;;;0.50;2201.60;;;;;;5053975;28;20032;-75
2021/12/14 05:21:46;;;;;;;139.77;63.00;;;0.70;2201.60;;;;;;5053611;28;20048;-75
2021/12/14 05:24:16;;;;;;;151.77;64.32;;;0.70;2201.60;;;;;;5071920;28;20028;-75
2021/12/14 05:26:45;;;;;;;128.10;63.35;;;0.60;2201.60;;;;;;5053091;28;20029;-76
2021/12/14 05:29:12;;;;;;;114.72;57.28;;;0.60;2201.60;;;;;;5053967;28;20433;-76
2021/12/14 05:31:45;;;;;;;127.82;58.03;;;0.60;2201.60;;;;;;5058429;28;20384;-75
2021/12/14 05:34:12;;;;;;;115.80;53.47;;;0.60;2201.60;;;;;;5051605;28;20025;-76
2021/12/14 05:36:42;;;;;;;137.57;51.65;;;0.60;2201.60;;;;;;5051832;28;20017;-76
2021/12/14 05:44:42;;;;;;;110.93;55.00;;;0.50;2201.60;;;;;;5059880;28;20391;-76
2021/12/14 05:47:12;;;;;;;142.10;62.92;;;0.50;2201.60;;;;;;5049585;28;20025;-76
2021/12/14 05:49:41;;;;;;;131.80;60.88;;;0.50;2201.60;;;;;;5051717;28;20029;-76
2021/12/14 05:52:12;;;;;;;120.85;58.90;;;0.50;2201.60;;;;;;5033344;28;20064;-76
2021/12/14 05:54:38;;;;;;;142.80;67.13;;;0.50;2201.60;;;;;;5046234;28;20029;-76
2021/12/14 05:57:07;;;;;;;127.80;59.53;;;0.50;2201.60;;;;;;5044891;28;20395;-77
2021/12/14 05:59:35;;;;;;;134.27;59.67;;;0.50;2201.60;;;;;;5070045;28;20540;-77
2021/12/14 06:02:04;;;;;;;123.55;63.90;;;0.40;2201.60;;;;;;5042984;28;20661;-77
2021/12/14 06:04:41;;;;;;;117.88;56.40;;;0.40;2201.60;;;;;;5052682;28;20025;-77
2021/12/14 06:07:08;;;;;;;98.72;52.60;;;0.50;2201.60;;;;;;5047572;28;20130;-76
2021/12/14 06:09:37;;;;;;;121.93;60.17;;;0.60;2201.60;;;;;;5057057;28;20137;-76
2021/12/14 06:12:14;;;;;;;94.90;53.15;;;0.50;2201.60;;;;;;5074951;28;20075;-76
2021/12/14 06:14:51;;;;;;;95.70;50.78;;;0.60;2201.60;;;;;;5052395;28;20040;-75
2021/12/14 06:17:29;;;;;;;94.68;52.97;;;0.60;2201.60;;;;;;5071894;28;20017;-75
2021/12/14 06:20:08;;;;;;;135.80;66.82;;;0.50;2201.60;;;;;;5074603;28;20386;-76
2021/12/14 06:22:34;;;;;;;125.50;64.50;;;0.60;2201.60;;;;;;5064003;28;20025;-75
2021/12/14 06:25:05;;;;;;;110.10;61.30;;;0.60;2201.60;;;;;;5054702;28;20032;-75
2021/12/14 06:27:32;;;;;;;103.22;56.38;;;0.70;2201.60;;;;;;5036732;28;20408;-75
2021/12/14 06:30:15;;;;;;;101.75;53.15;;;0.70;2201.60;;;;;;5043888;28;20035;-75
2021/12/14 06:32:48;;;;;;;80.43;46.00;;;0.90;2201.60;;;;;;5036694;28;20035;-76
2021/12/14 06:35:22;;;;;;;72.20;42.72;;;25.70;2201.60;;;;;;5054604;28;20547;-76
2021/12/14 06:40:39;;;;;;;84.53;47.70;;;25.60;2201.60;;;;;;5054338;28;20645;-76
2021/12/14 06:43:15;;;;;;;88.10;49.47;;;25.60;2201.60;;;;;;5054907;28;20033;-76
2021/12/14 06:45:44;;;;;;;84.28;44.22;;;0.90;2201.60;;;;;;5054216;28;20025;-76
2021/12/14 06:48:16;;;;;;;67.78;43.22;;;25.60;2201.60;;;;;;5036356;28;20036;-76
2021/12/14 06:50:54;;;;;;;91.72;49.58;;;25.70;2201.60;;;;;;5045158;28;20036;-75
2021/12/14 06:53:20;;;;;;;81.70;48.22;;;25.60;2201.60;;;;;;5073706;28;20437;-75
2021/12/14 06:55:54;;;;;;;88.75;51.60;;;25.60;2201.60;;;;;;5074291;28;20025;-76
2021/12/14 06:58:29;;;;;;;82.75;43.28;;;25.60;2201.60;;;;;;5056379;28;20495;-75
2021/12/14 07:01:01;;;;;;;88.47;48.00;;;25.70;2201.60;;;;;;5068249;28;20053;-77
2021/12/14 07:03:53;;;;;;;89.50;51.60;;;25.60;2201.60;;;;;;5062732;28;20060;-76
2021/12/14 07:06:24;;;;;;;82.18;43.83;;;0.80;2201.60;;;;;;5069972;28;20021;-76
2021/12/14 07:08:50;;;;;;;96.65;55.88;;;0.80;2201.60;;;;;;5065302;28;21448;-76
2021/12/14 07:11:24;;;;;;;104.10;57.78;;;0.80;2201.60;;;;;;5048879;28;20091;-76
2021/12/14 07:13:52;;;;;;;91.45;49.65;;;0.80;2201.60;;;;;;5062469;28;20025;-76
2021/12/14 07:16:29;;;;;;;73.22;42.33;;;25.60;2201.60;;;;;;5052518;28;20033;-76
2021/12/14 07:18:59;;;;;;;71.03;42.25;;;25.70;2201.60;;;;;;5054940;28;20391;-77
2021/12/14 07:21:38;;;;;;;73.32;41.83;;;25.70;2201.60;;;;;;5064360;28;20020;-76
2021/12/14 07:24:22;;;;;;;70.68;40.83;;;25.70;2201.60;;;;;;5062209;28;20099;-76
2021/12/14 07:26:49;;;;;;;77.43;41.90;;;25.90;2201.60;;;;;;5062604;28;20029;-76
2021/12/14 07:29:22;;;;;;;68.88;41.10;;;25.90;2201.60;;;;;;5051572;28;20040;-76
2021/12/14 07:31:48;;;;;;;77.35;42.38;;;25.80;2201.60;;;;;;5066792;28;20423;-76
2021/12/14 07:34:14;;;;;;;78.50;46.50;;;25.80;2201.60;;;;;;5044035;28;20024;-76
2021/12/14 07:36:40;;;;;;;75.57;41.45;;;25.80;2201.60;;;;;;5046793;28;20037;-76
2021/12/14 07:39:12;;;;;;;70.05;40.92;;;26.00;2201.60;;;;;;5062906;28;20525;-76
2021/12/14 07:41:43;;;;;;;64.85;40.45;;;26.00;2201.60;;;;;;5054995;28;20108;-76
2021/12/14 07:44:19;;;;;;;64.15;38.72;;;26.10;2201.60;;;;;;5063075;28;20016;-76
2021/12/14 07:47:15;;;;;;;73.10;42.38;;;26.10;2201.60;;;;;;5064037;28;20019;-77
2021/12/14 07:49:54;;;;;;;73.13;42.03;;;26.10;2201.60;;;;;;5030586;28;20033;-77
2021/12/14 07:52:22;;;;;;;68.38;39.67;;;26.10;2201.60;;;;;;5028345;28;20109;-77
2021/12/14 07:54:52;;;;;;;66.55;38.03;;;26.10;2201.60;;;;;;5015394;28;20038;-77
2021/12/14 07:57:25;;;;;;;71.72;41.22;;;26.00;2201.60;;;;;;5011715;28;20038;-76
2021/12/14 07:59:58;;;;;;;63.28;39.17;;;26.10;2201.60;;;;;;5025821;28;20030;-76
2021/12/14 08:02:39;;;;;;;71.68;39.17;;;26.20;2201.60;;;;;;5013662;28;20029;-76
2021/12/14 08:05:19;;;;;;;68.50;40.38;;;26.30;2201.60;;;;;;5030798;28;20033;-76
2021/12/14 08:08:14;;;;;;;70.60;40.53;;;26.30;2201.60;;;;;;5030826;28;20400;-76
2021/12/14 08:10:57;;;;;;;71.68;41.42;;;26.40;2201.60;;;;;;5028990;28;20075;-76
2021/12/14 08:13:24;;;;;;;65.63;36.40;;;26.40;2201.60;;;;;;5013635;28;20041;-75
2021/12/14 08:15:57;;;;;;;67.38;40.65;;;51.20;2227.20;;;;;;5030794;28;20438;-76
2021/12/14 08:18:33;;;;;;;62.17;39.53;;;26.50;2201.60;;;;;;5030118;28;20053;-75
2021/12/14 08:21:09;;;;;;;71.93;40.17;;;51.20;2227.20;;;;;;5021429;28;20034;-75
2021/12/14 08:24:01;;;;;;;69.85;41.08;;;51.30;2227.20;;;;;;5011113;28;20022;-75
2021/12/14 08:26:44;;;;;;;72.97;40.33;;;51.20;2227.20;;;;;;5047051;28;20041;-75
2021/12/14 08:29:16;;;;;;;69.32;39.10;;;26.50;2201.60;;;;;;5051842;28;20033;-74
2021/12/14 08:31:47;;;;;;;65.65;41.35;;;51.20;2227.20;;;;;;5062635;28;20024;-75
2021/12/14 08:34:28;;;;;;;69.78;39.45;;;51.20;2227.20;;;;;;5062587;28;20386;-75
2021/12/14 08:37:07;;;;;;;63.33;39.72;;;51.20;2227.20;;;;;;5052282;28;20023;-74
2021/12/14 08:39:43;;;;;;;62.83;37.72;;;51.40;2227.20;;;;;;5069209;28;20123;-74
2021/12/14 08:42:12;;;;;;;55.70;37.08;;;51.40;2227.20;;;;;;5047373;28;20114;-74
2021/12/14 08:44:41;;;;;;;63.55;37.70;;;51.40;2227.20;;;;;;5052556;28;20507;-74
2021/12/14 08:47:13;;;;;;;64.93;38.67;;;51.40;2227.20;;;;;;5052814;28;20036;-74
2021/12/14 08:49:42;;;;;;;62.35;40.25;;;51.50;2227.20;;;;;;5060247;28;20032;-74
2021/12/14 08:52:09;;;;;;;68.70;39.88;;;51.50;2227.20;;;;;;5050954;28;20418;-74
2021/12/14 08:54:37;;;;;;;62.88;40.10;;;51.40;2227.20;;;;;;5065110;28;20491;-74
2021/12/14 08:57:08;;;;;;;63.97;40.75;;;51.40;2227.20;;;;;;5069055;28;20028;-74
2021/12/14 08:59:39;;;;;;;65.90;40.08;;;51.60;2227.20;;;;;;5050580;28;20029;-74
2021/12/14 09:02:11;;;;;;;61.92;38.63;;;51.60;2227.20;;;;;;5061761;28;20426;-74
2021/12/14 09:04:48;;;;;;;70.47;43.03;;;51.50;2227.20;;;;;;5056284;28;20113;-74
2021/12/14 09:07:21;;;;;;;64.28;38.35;;;51.60;2227.20;;;;;;5055719;28;20505;-74
2021/12/14 09:09:47;;;;;;;65.25;41.45;;;51.70;2227.20;;;;;;5060399;28;20033;-74
2021/12/14 09:12:18;;;;;;;67.78;40.75;;;51.70;2227.20;;;;;;5063306;28;20246;-74
2021/12/14 09:14:48;;;;;;;65.47;39.60;;;51.80;2227.20;;;;;;5063083;28;20029;-74
2021/12/14 09:17:17;;;;;;;69.57;39.58;;;51.80;2227.20;;;;;;5062838;28;20024;-73
2021/12/14 09:19:47;;;;;;;67.80;40.40;;;51.90;2227.20;;;;;;5053608;28;20123;-73
2021/12/14 09:22:19;;;;;;;63.83;39.70;;;51.90;2227.20;;;;;;5054105;28;20051;-73
2021/12/14 09:24:45;;;;;;;65.30;40.97;;;51.90;2227.20;;;;;;5071551;28;20024;-73
2021/12/14 09:27:16;;;;;;;67.75;43.63;;;51.80;2227.20;;;;;;5071736;28;20378;-74
2021/12/14 09:29:43;;;;;;;64.60;37.95;;;51.90;2227.20;;;;;;5071950;28;20444;-73
2021/12/14 09:32:12;;;;;;;67.35;39.28;;;51.90;2227.20;;;;;;5071667;28;20021;-73
2021/12/14 09:34:40;;;;;;;69.75;39.38;;;51.90;2227.20;;;;;;5053681;28;20082;-74
2021/12/14 09:37:09;;;;;;;64.88;39.88;;;51.80;2227.20;;;;;;5053422;28;20025;-73
2021/12/14 09:39:40;;;;;;;63.78;39.90;;;51.80;2227.20;;;;;;5071292;28;20072;-74
2021/12/14 09:42:11;;;;;;;65.22;39.78;;;51.80;2227.20;;;;;;5069790;28;20403;-74
2021/12/14 09:44:38;;;;;;;68.28;41.83;;;51.80;2227.20;;;;;;5075263;28;20805;-73
2021/12/14 09:47:15;;;;;;;72.57;44.13;;;51.90;2227.20;;;;;;5075850;28;20035;-74
2021/12/14 09:49:43;;;;;;;63.72;39.20;;;51.90;2227.20;;;;;;5056525;28;20033;-74
2021/12/14 09:52:17;;;;;;;75.90;43.25;;;51.90;2227.20;;;;;;5057466;28;20039;-73
2021/12/14 09:54:43;;;;;;;72.30;42.00;;;51.90;2227.20;;;;;;5075521;28;20021;-74
2021/12/14 09:57:16;;;;;;;73.95;42.42;;;51.90;2227.20;;;;;;5075242;28;20060;-73
2021/12/14 09:59:42;;;;;;;78.18;45.15;;;51.90;2227.20;;;;;;5057167;28;20025;-73
2021/12/14 10:02:11;;;;;;;68.93;42.60;;;52.10;2227.20;;;;;;5075060;28;20074;-73
2021/12/14 10:04:45;;;;;;;78.70;48.33;;;52.10;2227.20;;;;;;5056910;28;20056;-73
2021/12/14 10:07:11;;;;;;;78.13;44.15;;;76.80;2227.20;;;;;;5075015;28;20463;-74
2021/12/14 10:09:43;;;;;;;65.47;42.45;;;76.90;2227.20;;;;;;5074997;28;20040;-73
2021/12/14 10:12:48;;;;;;;76.22;42.80;;;76.80;2227.20;;;;;;5057234;28;20119;-74
2021/12/14 10:15:10;;;;;;;71.97;45.20;;;76.90;2227.20;;;;;;5074380;28;20051;-74
2021/12/14 10:17:36;;;;;;;77.57;47.95;;;76.90;2227.20;;;;;;5074704;28;20028;-74
2021/12/14 10:20:04;;;;;;;67.93;41.60;;;77.00;2227.20;;;;;;5075104;28;20028;-73
2021/12/14 10:22:31;;;;;;;71.25;45.38;;;76.90;2227.20;;;;;;5074316;28;20027;-73
2021/12/14 10:25:07;;;;;;;77.40;47.00;;;77.00;2227.20;;;;;;5074939;28;20103;-74
2021/12/14 10:27:35;;;;;;;66.90;43.70;;;77.10;2227.20;;;;;;5056564;28;20032;-74
2021/12/14 10:30:09;;;;;;;79.55;46.30;;;77.20;2227.20;;;;;;5056798;28;20060;-73
2021/12/14 10:32:37;;;;;;;69.85;43.00;;;77.10;2227.20;;;;;;5056178;28;20545;-74
2021/12/14 10:35:12;;;;;;;71.72;41.33;;;77.10;2227.20;;;;;;5056381;28;20116;-74
2021/12/14 10:37:56;;;;;;;76.93;44.10;;;77.00;2227.20;;;;;;5074426;28;20114;-74
2021/12/14 10:43:30;;;;;;;73.13;45.10;;;77.20;2227.20;;;;;;5071436;28;20414;-73
2021/12/14 10:46:20;;;;;;;72.47;44.00;;;77.30;2227.20;;;;;;5056340;28;20032;-73
2021/12/14 10:48:48;;;;;;;78.63;46.10;;;77.30;2227.20;;;;;;5056033;28;20106;-74
2021/12/14 10:51:17;;;;;;;70.18;44.08;;;77.40;2227.20;;;;;;5072944;28;20386;-73
2021/12/14 10:53:47;;;;;;;67.72;43.60;;;77.40;2227.20;;;;;;5051285;28;20494;-74
2021/12/14 10:56:20;;;;;;;68.40;41.60;;;77.50;2227.20;;;;;;5054136;28;20429;-73
2021/12/14 10:58:49;;;;;;;71.47;42.97;;;77.50;2227.20;;;;;;5053738;28;20079;-74
2021/12/14 11:01:25;;;;;;;67.07;40.47;;;77.50;2227.20;;;;;;5054400;28;20032;-74
2021/12/14 11:03:56;;;;;;;67.90;41.22;;;77.60;2227.20;;;;;;5053886;28;20056;-73
2021/12/14 11:06:28;;;;;;;65.65;40.88;;;77.60;2227.20;;;;;;5053784;28;20079;-74
2021/12/14 11:09:39;;;;;;;73.63;42.08;;;77.50;2227.20;;;;;;5070331;28;20124;-74
2021/12/14 11:11:53;;;;;;;72.97;42.97;;;77.50;2227.20;;;;;;5067841;28;20395;-74
2021/12/14 11:14:34;;;;;;;70.07;43.22;;;77.50;2227.20;;;;;;5073200;28;20032;-74
2021/12/14 11:19:59;;;;;;;75.10;45.35;;;77.50;2227.20;;;;;;5074108;28;20031;-74
2021/12/14 11:22:41;;;;;;;73.45;48.45;;;102.40;2227.20;;;;;;5070413;28;20021;-74
2021/12/14 11:25:22;;;;;;;81.65;49.63;;;102.40;2227.20;;;;;;5049982;28;20553;-74
2021/12/14 11:27:53;;;;;;;76.28;45.75;;;102.50;2227.20;;;;;;5072247;28;20032;-74
2021/12/14 11:30:45;;;;;;;74.53;43.08;;;102.60;2227.20;;;;;;5054364;28;20066;-75
2021/12/14 11:33:29;;;;;;;77.50;45.92;;;102.60;2227.20;;;;;;4994209;28;20049;-75
2021/12/14 11:36:12;;;;;;;81.05;50.47;;;102.70;2227.20;;;;;;4995144;28;20856;-75
2021/12/14 11:38:47;;;;;;;79.75;44.88;;;102.60;2227.20;;;;;;4994615;28;20137;-74
2021/12/14 11:41:36;;;;;;;82.88;47.63;;;102.60;2227.20;;;;;;5010788;28;20065;-75
2021/12/14 11:44:13;;;;;;;81.35;49.67;;;102.60;2227.20;;;;;;5011581;28;20037;-75
2021/12/14 11:47:03;;;;;;;81.25;50.78;;;102.60;2227.20;;;;;;5011000;28;20025;-75
2021/12/14 11:49:53;;;;;;;80.00;49.22;;;102.60;2227.20;;;;;;4994242;28;20124;-75
2021/12/14 11:52:53;;;;;;;85.03;49.92;;;102.50;2227.20;;;;;;5010968;28;20022;-75
2021/12/14 11:55:37;;;;;;;75.55;48.45;;;102.60;2227.20;;;;;;5010989;28;20072;-75
2021/12/14 11:58:20;;;;;;;86.18;50.72;;;102.60;2227.20;;;;;;5011273;28;20378;-75
2021/12/14 12:01:09;;;;;;;79.47;49.33;;;102.60;2227.20;;;;;;5011161;28;20782;-74
2021/12/14 12:03:40;;;;;;;79.32;49.28;;;102.60;2227.20;;;;;;4994126;28;20030;-75
2021/12/14 12:09:32;;;;;;;83.97;51.47;;;102.80;2227.20;;;;;;4994513;28;20026;-75
2021/12/14 12:12:04;;;;;;;79.00;48.90;;;102.80;2227.20;;;;;;5010138;28;20112;-74
2021/12/14 12:14:40;;;;;;;85.70;53.28;;;102.80;2227.20;;;;;;4993947;28;20042;-75
2021/12/14 12:17:40;;;;;;;84.78;51.30;;;102.80;2227.20;;;;;;4994288;28;20029;-74
2021/12/14 12:20:24;;;;;;;81.05;48.33;;;102.90;2227.20;;;;;;5005867;28;20041;-75
2021/12/14 12:23:07;;;;;;;88.78;55.72;;;103.00;2227.20;;;;;;4994230;28;20030;-74
2021/12/14 12:25:36;;;;;;;85.13;52.03;;;103.00;2227.20;;;;;;5009318;28;20033;-75
2021/12/14 12:28:26;;;;;;;96.97;53.83;;;103.10;2227.20;;;;;;4991894;28;20064;-74
2021/12/14 12:31:06;;;;;;;78.75;50.25;;;103.20;2227.20;;;;;;4987984;28;20033;-76
2021/12/14 12:33:47;;;;;;;85.97;50.38;;;103.10;2227.20;;;;;;4992140;28;20535;-74
2021/12/14 12:36:13;;;;;;;86.35;53.08;;;103.10;2227.20;;;;;;4997463;28;20036;-75
2021/12/14 12:38:59;;;;;;;89.65;57.50;;;103.10;2227.20;;;;;;4990552;28;20046;-75
2021/12/14 12:41:40;;;;;;;;;;;103.10;2227.20;;;;;;4988041;28;20042;-76
2021/12/14 12:44:14;;;;;;;95.32;57.03;;;103.00;2227.20;;;;;;5003509;28;19944;-75
2021/12/14 12:47:00;;;;;;;87.07;54.05;;;102.90;2227.20;;;;;;5049616;28;20032;-76
2021/12/14 12:49:38;;;;;;;82.38;55.33;;;102.80;2227.20;;;;;;5071506;28;20019;-75
2021/12/14 12:52:07;;;;;;;86.05;55.10;;;102.80;2227.20;;;;;;5065590;28;20040;-75
2021/12/14 12:54:38;;;;;;;79.80;49.95;;;102.70;2227.20;;;;;;5059901;28;20020;-75
2021/12/14 12:57:10;;;;;;;72.13;48.60;;;102.70;2227.20;;;;;;5061127;28;20033;-75
2021/12/14 12:59:42;;;;;;;78.03;47.17;;;102.60;2227.20;;;;;;5052400;28;20039;-74
2021/12/14 13:02:27;;;;;;;89.65;50.78;;;102.70;2227.20;;;;;;5059671;28;20027;-75
2021/12/14 13:05:03;;;;;;;81.28;52.42;;;102.60;2227.20;;;;;;5057047;28;20565;-74
2021/12/14 13:07:42;;;;;;;88.43;52.45;;;102.70;2227.20;;;;;;5043313;28;20039;-75
2021/12/14 13:10:35;;;;;;;90.72;55.38;;;102.80;2227.20;;;;;;5059923;28;20832;-74
2021/12/14 13:13:07;;;;;;;104.43;59.17;;;102.80;2227.20;;;;;;5053922;28;20043;-75
2021/12/14 13:15:45;;;;;;;90.13;57.08;;;102.90;2227.20;;;;;;5067167;28;20028;-75
2021/12/14 13:18:20;;;;;;;102.78;56.38;;;103.00;2227.20;;;;;;5068253;28;20080;-75